sensor_id;sensor_type;location;lat;lon;timestamp;pressure;altitude;pressure_sealevel;temperature
77728;BMP280;68312;53.502;10.030;2023-05-07T00:01:17;102410.81;;;9.11
77728;BMP280;68312;53.502;10.030;2023-05-07T00:03:42;102408.97;;;9.07
77728;BMP280;68312;53.502;10.030;2023-05-07T00:06:07;102416.34;;;9.10
77728;BMP280;68312;53.502;10.030;2023-05-07T00:08:33;102411.59;;;9.07
77728;BMP280;68312;53.502;10.030;2023-05-07T00:10:59;102419.19;;;9.03
77728;BMP280;68312;53.502;10.030;2023-05-07T00:13:24;102414.72;;;9.04
77728;BMP280;68312;53.502;10.030;2023-05-07T00:15:50;102422.63;;;9.14
77728;BMP280;68312;53.502;10.030;2023-05-07T00:18:15;102420.53;;;9.11
77728;BMP280;68312;53.502;10.030;2023-05-07T00:20:40;102416.06;;;9.11
77728;BMP280;68312;53.502;10.030;2023-05-07T00:23:06;102415.81;;;9.18
77728;BMP280;68312;53.502;10.030;2023-05-07T00:25:31;102412.13;;;9.09
77728;BMP280;68312;53.502;10.030;2023-05-07T00:27:57;102414.50;;;9.10
77728;BMP280;68312;53.502;10.030;2023-05-07T00:30:22;102416.84;;;9.12
77728;BMP280;68312;53.502;10.030;2023-05-07T00:32:48;102416.06;;;9.11
77728;BMP280;68312;53.502;10.030;2023-05-07T00:35:16;102413.97;;;9.08
77728;BMP280;68312;53.502;10.030;2023-05-07T00:37:42;102418.16;;;9.14
77728;BMP280;68312;53.502;10.030;2023-05-07T00:40:10;102419.75;;;9.10
77728;BMP280;68312;53.502;10.030;2023-05-07T00:42:36;102413.97;;;9.08
77728;BMP280;68312;53.502;10.030;2023-05-07T00:45:03;102403.22;;;9.10
77728;BMP280;68312;53.502;10.030;2023-05-07T00:47:29;102404.00;;;9.10
77728;BMP280;68312;53.502;10.030;2023-05-07T00:49:56;102401.13;;;9.12
77728;BMP280;68312;53.502;10.030;2023-05-07T00:52:25;102390.34;;;9.13
77728;BMP280;68312;53.502;10.030;2023-05-07T00:54:52;102391.94;;;9.24
77728;BMP280;68312;53.502;10.030;2023-05-07T00:57:20;102385.63;;;9.15
77728;BMP280;68312;53.502;10.030;2023-05-07T00:59:51;102390.63;;;9.12
77728;BMP280;68312;53.502;10.030;2023-05-07T01:02:17;102389.31;;;9.19
77728;BMP280;68312;53.502;10.030;2023-05-07T01:04:42;102391.16;;;9.14
77728;BMP280;68312;53.502;10.030;2023-05-07T01:07:08;102389.84;;;9.11
77728;BMP280;68312;53.502;10.030;2023-05-07T01:09:37;102383.56;;;9.17
77728;BMP280;68312;53.502;10.030;2023-05-07T01:12:04;102384.84;;;9.15
77728;BMP280;68312;53.502;10.030;2023-05-07T01:14:33;102378.31;;;9.12
77728;BMP280;68312;53.502;10.030;2023-05-07T01:16:59;102379.88;;;9.13
77728;BMP280;68312;53.502;10.030;2023-05-07T01:19:28;102386.97;;;9.23
77728;BMP280;68312;53.502;10.030;2023-05-07T01:22:08;102379.88;;;9.23
77728;BMP280;68312;53.502;10.030;2023-05-07T01:24:37;102373.84;;;9.32
77728;BMP280;68312;53.502;10.030;2023-05-07T01:27:03;102378.84;;;9.24
77728;BMP280;68312;53.502;10.030;2023-05-07T01:29:29;102377.00;;;9.20
77728;BMP280;68312;53.502;10.030;2023-05-07T01:31:59;102377.78;;;9.25
77728;BMP280;68312;53.502;10.030;2023-05-07T01:34:31;102369.13;;;9.20
77728;BMP280;68312;53.502;10.030;2023-05-07T01:37:00;102373.06;;;9.27
77728;BMP280;68312;53.502;10.030;2023-05-07T01:39:29;102382.78;;;9.26
77728;BMP280;68312;53.502;10.030;2023-05-07T01:41:56;102377.53;;;9.26
77728;BMP280;68312;53.502;10.030;2023-05-07T01:44:22;102378.81;;;9.34
77728;BMP280;68312;53.502;10.030;2023-05-07T01:46:49;102375.41;;;9.33
77728;BMP280;68312;53.502;10.030;2023-05-07T01:49:15;102379.88;;;9.28
77728;BMP280;68312;53.502;10.030;2023-05-07T01:51:42;102380.69;;;9.28
77728;BMP280;68312;53.502;10.030;2023-05-07T01:54:08;102375.16;;;9.25
77728;BMP280;68312;53.502;10.030;2023-05-07T01:56:34;102366.75;;;9.33
77728;BMP280;68312;53.502;10.030;2023-05-07T01:58:59;102372.00;;;9.33
77728;BMP280;68312;53.502;10.030;2023-05-07T02:01:28;102391.66;;;9.25
77728;BMP280;68312;53.502;10.030;2023-05-07T02:03:54;102387.75;;;9.28
77728;BMP280;68312;53.502;10.030;2023-05-07T02:06:19;102390.59;;;9.22
77728;BMP280;68312;53.502;10.030;2023-05-07T02:08:45;102400.31;;;9.21
77728;BMP280;68312;53.502;10.030;2023-05-07T02:11:11;102402.97;;;9.16
77728;BMP280;68312;53.502;10.030;2023-05-07T02:13:40;102402.44;;;9.24
77728;BMP280;68312;53.502;10.030;2023-05-07T02:16:06;102401.91;;;9.22
77728;BMP280;68312;53.502;10.030;2023-05-07T02:18:32;102402.69;;;9.27
77728;BMP280;68312;53.502;10.030;2023-05-07T02:20:57;102415.03;;;9.27
77728;BMP280;68312;53.502;10.030;2023-05-07T02:23:23;102416.81;;;9.22
77728;BMP280;68312;53.502;10.030;2023-05-07T02:25:48;102422.88;;;9.17
77728;BMP280;68312;53.502;10.030;2023-05-07T02:28:14;102423.16;;;9.16
77728;BMP280;68312;53.502;10.030;2023-05-07T02:30:39;102408.97;;;9.12
77728;BMP280;68312;53.502;10.030;2023-05-07T02:33:05;102416.56;;;9.13
77728;BMP280;68312;53.502;10.030;2023-05-07T02:35:30;102413.69;;;9.15
77728;BMP280;68312;53.502;10.030;2023-05-07T02:37:56;102413.94;;;9.13
77728;BMP280;68312;53.502;10.030;2023-05-07T02:40:24;102412.38;;;9.12
77728;BMP280;68312;53.502;10.030;2023-05-07T02:42:50;102419.19;;;9.13
77728;BMP280;68312;53.502;10.030;2023-05-07T02:45:16;102414.22;;;9.17
77728;BMP280;68312;53.502;10.030;2023-05-07T02:47:41;102416.06;;;9.16
77728;BMP280;68312;53.502;10.030;2023-05-07T02:50:07;102415.53;;;9.19
77728;BMP280;68312;53.502;10.030;2023-05-07T02:52:32;102399.81;;;9.24
77728;BMP280;68312;53.502;10.030;2023-05-07T02:54:58;102424.97;;;9.20
77728;BMP280;68312;53.502;10.030;2023-05-07T02:57:23;102417.38;;;9.19
77728;BMP280;68312;53.502;10.030;2023-05-07T02:59:49;102423.94;;;9.16
77728;BMP280;68312;53.502;10.030;2023-05-07T03:02:14;102420.00;;;9.14
77728;BMP280;68312;53.502;10.030;2023-05-07T03:04:40;102424.69;;;9.22
77728;BMP280;68312;53.502;10.030;2023-05-07T03:07:06;102419.44;;;9.22
77728;BMP280;68312;53.502;10.030;2023-05-07T03:09:31;102424.72;;;9.17
77728;BMP280;68312;53.502;10.030;2023-05-07T03:11:57;102430.19;;;9.15
77728;BMP280;68312;53.502;10.030;2023-05-07T03:14:25;102428.66;;;9.09
77728;BMP280;68312;53.502;10.030;2023-05-07T03:16:50;102426.03;;;9.09
77728;BMP280;68312;53.502;10.030;2023-05-07T03:19:16;102433.09;;;9.14
77728;BMP280;68312;53.502;10.030;2023-05-07T03:21:41;102429.94;;;9.07
77728;BMP280;68312;53.502;10.030;2023-05-07T03:24:07;102427.59;;;9.05
77728;BMP280;68312;53.502;10.030;2023-05-07T03:26:32;102428.91;;;9.08
77728;BMP280;68312;53.502;10.030;2023-05-07T03:28:58;102426.00;;;9.04
77728;BMP280;68312;53.502;10.030;2023-05-07T03:31:23;102426.00;;;9.04
77728;BMP280;68312;53.502;10.030;2023-05-07T03:33:51;102427.59;;;9.10
77728;BMP280;68312;53.502;10.030;2023-05-07T03:36:18;102420.25;;;9.07
77728;BMP280;68312;53.502;10.030;2023-05-07T03:38:44;102423.13;;;9.06
77728;BMP280;68312;53.502;10.030;2023-05-07T03:41:10;102427.31;;;9.12
77728;BMP280;68312;53.502;10.030;2023-05-07T03:43:35;102422.06;;;9.07
77728;BMP280;68312;53.502;10.030;2023-05-07T03:46:01;102419.72;;;9.05
77728;BMP280;68312;53.502;10.030;2023-05-07T03:48:26;102420.75;;;9.04
77728;BMP280;68312;53.502;10.030;2023-05-07T03:50:52;102426.28;;;9.08
77728;BMP280;68312;53.502;10.030;2023-05-07T03:53:17;102426.03;;;9.09
77728;BMP280;68312;53.502;10.030;2023-05-07T03:55:43;102421.31;;;9.11
77728;BMP280;68312;53.502;10.030;2023-05-07T03:58:08;102422.88;;;9.12
77728;BMP280;68312;53.502;10.030;2023-05-07T04:00:34;102429.66;;;9.13
77728;BMP280;68312;53.502;10.030;2023-05-07T04:02:59;102433.88;;;9.14
77728;BMP280;68312;53.502;10.030;2023-05-07T04:05:25;102424.44;;;9.13
77728;BMP280;68312;53.502;10.030;2023-05-07T04:07:50;102435.44;;;9.15
77728;BMP280;68312;53.502;10.030;2023-05-07T04:10:16;102434.91;;;9.13
77728;BMP280;68312;53.502;10.030;2023-05-07T04:12:41;102427.88;;;9.19
77728;BMP280;68312;53.502;10.030;2023-05-07T04:15:07;102442.53;;;9.20
77728;BMP280;68312;53.502;10.030;2023-05-07T04:17:33;102438.63;;;9.22
77728;BMP280;68312;53.502;10.030;2023-05-07T04:19:58;102433.38;;;9.22
77728;BMP280;68312;53.502;10.030;2023-05-07T04:22:24;102437.00;;;9.21
77728;BMP280;68312;53.502;10.030;2023-05-07T04:24:49;102436.53;;;9.24
77728;BMP280;68312;53.502;10.030;2023-05-07T04:27:14;102435.75;;;9.28
77728;BMP280;68312;53.502;10.030;2023-05-07T04:29:40;102438.06;;;9.30
77728;BMP280;68312;53.502;10.030;2023-05-07T04:32:05;102449.09;;;9.27
77728;BMP280;68312;53.502;10.030;2023-05-07T04:34:31;102437.31;;;9.25
77728;BMP280;68312;53.502;10.030;2023-05-07T04:36:58;102440.69;;;9.30
77728;BMP280;68312;53.502;10.030;2023-05-07T04:39:24;102443.31;;;9.30
77728;BMP280;68312;53.502;10.030;2023-05-07T04:41:55;102435.19;;;9.36
77728;BMP280;68312;53.502;10.030;2023-05-07T04:44:21;102435.19;;;9.41
77728;BMP280;68312;53.502;10.030;2023-05-07T04:46:46;102429.94;;;9.41
77728;BMP280;68312;53.502;10.030;2023-05-07T04:49:12;102438.88;;;9.45
77728;BMP280;68312;53.502;10.030;2023-05-07T04:51:37;102438.59;;;9.42
77728;BMP280;68312;53.502;10.030;2023-05-07T04:54:02;102441.75;;;9.44
77728;BMP280;68312;53.502;10.030;2023-05-07T04:56:29;102444.09;;;9.50
77728;BMP280;68312;53.502;10.030;2023-05-07T04:58:54;102447.25;;;9.47
77728;BMP280;68312;53.502;10.030;2023-05-07T05:01:20;102451.69;;;9.56
77728;BMP280;68312;53.502;10.030;2023-05-07T05:03:45;102450.38;;;9.49
77728;BMP280;68312;53.502;10.030;2023-05-07T05:06:11;102449.88;;;9.52
77728;BMP280;68312;53.502;10.030;2023-05-07T05:08:36;102452.75;;;9.55
77728;BMP280;68312;53.502;10.030;2023-05-07T05:11:02;102448.00;;;9.67
77728;BMP280;68312;53.502;10.030;2023-05-07T05:13:28;102458.50;;;9.67
77728;BMP280;68312;53.502;10.030;2023-05-07T05:15:54;102459.56;;;9.66
77728;BMP280;68312;53.502;10.030;2023-05-07T05:18:19;102454.31;;;9.66
77728;BMP280;68312;53.502;10.030;2023-05-07T05:20:45;102453.75;;;9.74
77728;BMP280;68312;53.502;10.030;2023-05-07T05:23:10;102463.75;;;9.67
77728;BMP280;68312;53.502;10.030;2023-05-07T05:25:36;102458.50;;;9.67
77728;BMP280;68312;53.502;10.030;2023-05-07T05:28:01;102448.00;;;9.67
77728;BMP280;68312;53.502;10.030;2023-05-07T05:30:27;102451.16;;;9.69
77728;BMP280;68312;53.502;10.030;2023-05-07T05:32:53;102456.16;;;9.61
77728;BMP280;68312;53.502;10.030;2023-05-07T05:35:18;102451.41;;;9.63
77728;BMP280;68312;53.502;10.030;2023-05-07T05:37:44;102456.41;;;9.59
77728;BMP280;68312;53.502;10.030;2023-05-07T05:40:09;102458.00;;;9.60
77728;BMP280;68312;53.502;10.030;2023-05-07T05:42:35;102465.34;;;9.58
77728;BMP280;68312;53.502;10.030;2023-05-07T05:45:04;102463.78;;;9.62
77728;BMP280;68312;53.502;10.030;2023-05-07T05:47:30;102471.13;;;9.70
77728;BMP280;68312;53.502;10.030;2023-05-07T05:49:59;102472.41;;;9.68
77728;BMP280;68312;53.502;10.030;2023-05-07T05:52:24;102472.94;;;9.70
77728;BMP280;68312;53.502;10.030;2023-05-07T05:54:50;102476.38;;;9.70
77728;BMP280;68312;53.502;10.030;2023-05-07T05:57:15;102478.44;;;9.73
77728;BMP280;68312;53.502;10.030;2023-05-07T05:59:41;102476.31;;;9.80
77728;BMP280;68312;53.502;10.030;2023-05-07T06:02:07;102484.22;;;9.85
77728;BMP280;68312;53.502;10.030;2023-05-07T06:04:32;102484.22;;;9.85
77728;BMP280;68312;53.502;10.030;2023-05-07T06:06:58;102492.09;;;9.85
77728;BMP280;68312;53.502;10.030;2023-05-07T06:09:26;102489.19;;;9.86
77728;BMP280;68312;53.502;10.030;2023-05-07T06:11:52;102487.34;;;9.92
77728;BMP280;68312;53.502;10.030;2023-05-07T06:14:17;102491.00;;;9.91
77728;BMP280;68312;53.502;10.030;2023-05-07T06:16:43;102497.31;;;9.95
77728;BMP280;68312;53.502;10.030;2023-05-07T06:19:09;102495.97;;;9.97
77728;BMP280;68312;53.502;10.030;2023-05-07T06:21:34;102495.47;;;10.00
77728;BMP280;68312;53.502;10.030;2023-05-07T06:24:00;102493.38;;;10.02
77728;BMP280;68312;53.502;10.030;2023-05-07T06:26:25;102489.38;;;10.10
77728;BMP280;68312;53.502;10.030;2023-05-07T06:28:51;102496.22;;;10.11
77728;BMP280;68312;53.502;10.030;2023-05-07T06:31:19;102497.25;;;10.19
77728;BMP280;68312;53.502;10.030;2023-05-07T06:33:44;102491.47;;;10.17
77728;BMP280;68312;53.502;10.030;2023-05-07T06:36:10;102487.25;;;10.16
77728;BMP280;68312;53.502;10.030;2023-05-07T06:38:35;102486.47;;;10.16
77728;BMP280;68312;53.502;10.030;2023-05-07T06:41:01;102490.41;;;10.18
77728;BMP280;68312;53.502;10.030;2023-05-07T06:43:27;102483.84;;;10.16
77728;BMP280;68312;53.502;10.030;2023-05-07T06:45:52;102494.34;;;10.16
77728;BMP280;68312;53.502;10.030;2023-05-07T06:48:18;102492.53;;;10.12
77728;BMP280;68312;53.502;10.030;2023-05-07T06:50:43;102496.16;;;10.20
77728;BMP280;68312;53.502;10.030;2023-05-07T06:53:09;102501.19;;;10.17
77728;BMP280;68312;53.502;10.030;2023-05-07T06:55:34;102500.38;;;10.21
77728;BMP280;68312;53.502;10.030;2023-05-07T06:58:02;102494.59;;;10.29
77728;BMP280;68312;53.502;10.030;2023-05-07T07:00:31;102503.19;;;10.40
77728;BMP280;68312;53.502;10.030;2023-05-07T07:02:57;102501.31;;;10.50
77728;BMP280;68312;53.502;10.030;2023-05-07T07:05:25;102493.44;;;10.45
77728;BMP280;68312;53.502;10.030;2023-05-07T07:07:51;102501.63;;;10.43
77728;BMP280;68312;53.502;10.030;2023-05-07T07:10:16;102491.91;;;10.44
77728;BMP280;68312;53.502;10.030;2023-05-07T07:12:42;102489.72;;;10.56
77728;BMP280;68312;53.502;10.030;2023-05-07T07:15:07;102505.00;;;10.59
77728;BMP280;68312;53.502;10.030;2023-05-07T07:17:33;102500.72;;;10.68
77728;BMP280;68312;53.502;10.030;2023-05-07T07:19:59;102500.41;;;10.69
77728;BMP280;68312;53.502;10.030;2023-05-07T07:22:24;102497.28;;;10.72
77728;BMP280;68312;53.502;10.030;2023-05-07T07:24:50;102496.41;;;10.86
77728;BMP280;68312;53.502;10.030;2023-05-07T07:27:15;102491.16;;;10.81
77728;BMP280;68312;53.502;10.030;2023-05-07T07:29:41;102488.53;;;10.86
77728;BMP280;68312;53.502;10.030;2023-05-07T07:32:06;102485.59;;;10.93
77728;BMP280;68312;53.502;10.030;2023-05-07T07:34:32;102477.47;;;10.89
77728;BMP280;68312;53.502;10.030;2023-05-07T07:36:57;102490.28;;;10.96
77728;BMP280;68312;53.502;10.030;2023-05-07T07:39:23;102490.56;;;10.94
77728;BMP280;68312;53.502;10.030;2023-05-07T07:41:48;102492.66;;;10.97
77728;BMP280;68312;53.502;10.030;2023-05-07T07:44:14;102490.75;;;11.02
77728;BMP280;68312;53.502;10.030;2023-05-07T07:46:39;102495.78;;;10.99
77728;BMP280;68312;53.502;10.030;2023-05-07T07:49:05;102490.94;;;11.16
77728;BMP280;68312;53.502;10.030;2023-05-07T07:51:30;102496.13;;;11.26
77728;BMP280;68312;53.502;10.030;2023-05-07T07:53:56;102492.72;;;11.25
77728;BMP280;68312;53.502;10.030;2023-05-07T07:56:21;102487.16;;;11.27
77728;BMP280;68312;53.502;10.030;2023-05-07T07:58:47;102496.88;;;11.31
77728;BMP280;68312;53.502;10.030;2023-05-07T08:01:12;102510.03;;;11.31
77728;BMP280;68312;53.502;10.030;2023-05-07T08:03:38;102508.09;;;11.41
77728;BMP280;68312;53.502;10.030;2023-05-07T08:06:03;102512.28;;;11.47
77728;BMP280;68312;53.502;10.030;2023-05-07T08:08:29;102507.00;;;11.42
77728;BMP280;68312;53.502;10.030;2023-05-07T08:10:55;102509.66;;;11.47
77728;BMP280;68312;53.502;10.030;2023-05-07T08:13:20;102509.31;;;11.54
77728;BMP280;68312;53.502;10.030;2023-05-07T08:15:46;102514.97;;;11.37
77728;BMP280;68312;53.502;10.030;2023-05-07T08:18:11;102513.19;;;11.28
77728;BMP280;68312;53.502;10.030;2023-05-07T08:20:36;102518.63;;;11.36
77728;BMP280;68312;53.502;10.030;2023-05-07T08:23:05;102511.59;;;11.27
77728;BMP280;68312;53.502;10.030;2023-05-07T08:25:33;102517.16;;;11.26
77728;BMP280;68312;53.502;10.030;2023-05-07T08:27:59;102520.09;;;11.24
77728;BMP280;68312;53.502;10.030;2023-05-07T08:30:27;102515.47;;;11.34
77728;BMP280;68312;53.502;10.030;2023-05-07T08:32:53;102518.31;;;11.43
77728;BMP280;68312;53.502;10.030;2023-05-07T08:35:18;102515.47;;;11.39
77728;BMP280;68312;53.502;10.030;2023-05-07T08:37:44;102517.78;;;11.46
77728;BMP280;68312;53.502;10.030;2023-05-07T08:40:10;102513.53;;;11.50
77728;BMP280;68312;53.502;10.030;2023-05-07T08:42:36;102528.53;;;11.49
77728;BMP280;68312;53.502;10.030;2023-05-07T08:45:09;102522.16;;;11.55
77728;BMP280;68312;53.502;10.030;2023-05-07T08:47:42;102526.34;;;11.61
77728;BMP280;68312;53.502;10.030;2023-05-07T08:50:11;102534.69;;;11.68
77728;BMP280;68312;53.502;10.030;2023-05-07T08:52:37;102538.75;;;11.84
77728;BMP280;68312;53.502;10.030;2023-05-07T08:55:04;102531.03;;;11.92
77728;BMP280;68312;53.502;10.030;2023-05-07T08:57:31;102542.97;;;12.08
77728;BMP280;68312;53.502;10.030;2023-05-07T08:59:57;102546.16;;;12.05
77728;BMP280;68312;53.502;10.030;2023-05-07T09:02:22;102535.19;;;11.98
77728;BMP280;68312;53.502;10.030;2023-05-07T09:04:48;102530.94;;;11.74
77728;BMP280;68312;53.502;10.030;2023-05-07T09:07:13;102532.47;;;11.80
77728;BMP280;68312;53.502;10.030;2023-05-07T09:09:39;102534.72;;;11.91
77728;BMP280;68312;53.502;10.030;2023-05-07T09:12:04;102542.53;;;12.01
77728;BMP280;68312;53.502;10.030;2023-05-07T09:14:30;102536.81;;;12.17
77728;BMP280;68312;53.502;10.030;2023-05-07T09:16:56;102540.84;;;12.33
77728;BMP280;68312;53.502;10.030;2023-05-07T09:19:26;102548.13;;;12.41
77728;BMP280;68312;53.502;10.030;2023-05-07T09:22:02;102556.91;;;12.36
77728;BMP280;68312;53.502;10.030;2023-05-07T09:24:30;102551.09;;;12.34
77728;BMP280;68312;53.502;10.030;2023-05-07T09:26:59;102544.75;;;12.35
77728;BMP280;68312;53.502;10.030;2023-05-07T09:29:24;102548.66;;;12.38
77728;BMP280;68312;53.502;10.030;2023-05-07T09:31:50;102552.19;;;12.51
77728;BMP280;68312;53.502;10.030;2023-05-07T09:34:16;102552.81;;;12.44
77728;BMP280;68312;53.502;10.030;2023-05-07T09:36:41;102542.16;;;12.53
77728;BMP280;68312;53.502;10.030;2023-05-07T09:39:07;102545.44;;;12.64
77728;BMP280;68312;53.502;10.030;2023-05-07T09:41:32;102547.00;;;12.65
77728;BMP280;68312;53.502;10.030;2023-05-07T09:44:08;102539.25;;;12.55
77728;BMP280;68312;53.502;10.030;2023-05-07T09:46:36;102552.53;;;12.45
77728;BMP280;68312;53.502;10.030;2023-05-07T09:49:07;102558.06;;;12.44
77728;BMP280;68312;53.502;10.030;2023-05-07T09:51:51;102553.47;;;12.36
77728;BMP280;68312;53.502;10.030;2023-05-07T09:54:18;102560.06;;;12.33
77728;BMP280;68312;53.502;10.030;2023-05-07T09:56:48;102569.63;;;12.29
77728;BMP280;68312;53.502;10.030;2023-05-07T09:59:15;102568.81;;;12.29
77728;BMP280;68312;53.502;10.030;2023-05-07T10:01:43;102573.53;;;12.32
77728;BMP280;68312;53.502;10.030;2023-05-07T10:04:10;102561.91;;;12.33
77728;BMP280;68312;53.502;10.030;2023-05-07T10:06:37;102557.44;;;12.33
77728;BMP280;68312;53.502;10.030;2023-05-07T10:09:04;102559.09;;;12.24
77728;BMP280;68312;53.502;10.030;2023-05-07T10:11:32;102572.03;;;12.26
77728;BMP280;68312;53.502;10.030;2023-05-07T10:14:04;102556.13;;;12.36
77728;BMP280;68312;53.502;10.030;2023-05-07T10:16:31;102557.91;;;12.40
77728;BMP280;68312;53.502;10.030;2023-05-07T10:19:04;102559.38;;;12.46
77728;BMP280;68312;53.502;10.030;2023-05-07T10:21:36;102556.91;;;12.54
77728;BMP280;68312;53.502;10.030;2023-05-07T10:24:54;102555.25;;;12.58
77728;BMP280;68312;53.502;10.030;2023-05-07T10:27:04;102556.47;;;12.47
77728;BMP280;68312;53.502;10.030;2023-05-07T10:29:50;102558.75;;;12.36
77728;BMP280;68312;53.502;10.030;2023-05-07T10:32:49;102563.16;;;12.58
77728;BMP280;68312;53.502;10.030;2023-05-07T10:35:20;102564.94;;;12.63
77728;BMP280;68312;53.502;10.030;2023-05-07T10:37:50;102568.53;;;12.53
77728;BMP280;68312;53.502;10.030;2023-05-07T10:40:17;102572.84;;;12.68
77728;BMP280;68312;53.502;10.030;2023-05-07T10:43:04;102563.50;;;12.75
77728;BMP280;68312;53.502;10.030;2023-05-07T10:45:34;102565.00;;;12.81
77728;BMP280;68312;53.502;10.030;2023-05-07T10:48:13;102571.84;;;12.82
77728;BMP280;68312;53.502;10.030;2023-05-07T10:50:44;102564.34;;;12.89
77728;BMP280;68312;53.502;10.030;2023-05-07T10:55:42;102559.81;;;13.57
77728;BMP280;68312;53.502;10.030;2023-05-07T10:58:49;102554.19;;;13.77
77728;BMP280;68312;53.502;10.030;2023-05-07T11:01:14;102548.91;;;13.77
77728;BMP280;68312;53.502;10.030;2023-05-07T11:04:15;102553.44;;;13.89
77728;BMP280;68312;53.502;10.030;2023-05-07T11:06:41;102545.59;;;13.85
77728;BMP280;68312;53.502;10.030;2023-05-07T11:09:06;102552.41;;;13.72
77728;BMP280;68312;53.502;10.030;2023-05-07T11:11:49;102552.25;;;14.09
77728;BMP280;68312;53.502;10.030;2023-05-07T11:17:06;102551.38;;;14.48
77728;BMP280;68312;53.502;10.030;2023-05-07T11:19:51;102560.28;;;14.65
77728;BMP280;68312;53.502;10.030;2023-05-07T11:22:35;102557.84;;;14.69
77728;BMP280;68312;53.502;10.030;2023-05-07T11:25:03;102549.97;;;14.77
77728;BMP280;68312;53.502;10.030;2023-05-07T11:27:29;102552.03;;;14.67
77728;BMP280;68312;53.502;10.030;2023-05-07T11:29:55;102552.59;;;14.98
77728;BMP280;68312;53.502;10.030;2023-05-07T11:32:30;102544.50;;;15.17
77728;BMP280;68312;53.502;10.030;2023-05-07T11:34:58;102545.34;;;15.04
77728;BMP280;68312;53.502;10.030;2023-05-07T11:37:27;102548.75;;;14.61
77728;BMP280;68312;53.502;10.030;2023-05-07T11:40:04;102546.56;;;14.28
77728;BMP280;68312;53.502;10.030;2023-05-07T11:42:33;102541.25;;;14.76
77728;BMP280;68312;53.502;10.030;2023-05-07T11:45:03;102543.09;;;14.76
77728;BMP280;68312;53.502;10.030;2023-05-07T11:47:32;102539.09;;;15.00
77728;BMP280;68312;53.502;10.030;2023-05-07T11:50:06;102530.63;;;15.41
77728;BMP280;68312;53.502;10.030;2023-05-07T11:52:33;102523.31;;;15.47
77728;BMP280;68312;53.502;10.030;2023-05-07T11:55:01;102537.13;;;15.65
77728;BMP280;68312;53.502;10.030;2023-05-07T11:57:28;102536.81;;;16.30
77728;BMP280;68312;53.502;10.030;2023-05-07T11:59:57;102521.03;;;16.67
77728;BMP280;68312;53.502;10.030;2023-05-07T12:02:25;102513.66;;;17.14
77728;BMP280;68312;53.502;10.030;2023-05-07T12:04:51;102515.75;;;16.42
77728;BMP280;68312;53.502;10.030;2023-05-07T12:07:18;102531.47;;;16.05
77728;BMP280;68312;53.502;10.030;2023-05-07T12:09:45;102530.84;;;16.08
77728;BMP280;68312;53.502;10.030;2023-05-07T12:12:11;102520.75;;;16.35
77728;BMP280;68312;53.502;10.030;2023-05-07T12:14:41;102532.13;;;16.19
77728;BMP280;68312;53.502;10.030;2023-05-07T12:17:09;102530.25;;;16.28
77728;BMP280;68312;53.502;10.030;2023-05-07T12:19:38;102523.56;;;16.38
77728;BMP280;68312;53.502;10.030;2023-05-07T12:22:09;102536.38;;;16.78
77728;BMP280;68312;53.502;10.030;2023-05-07T12:24:56;102528.69;;;16.77
77728;BMP280;68312;53.502;10.030;2023-05-07T12:27:23;102529.19;;;16.62
77728;BMP280;68312;53.502;10.030;2023-05-07T12:29:49;102518.09;;;16.27
77728;BMP280;68312;53.502;10.030;2023-05-07T12:32:20;102530.59;;;16.34
77728;BMP280;68312;53.502;10.030;2023-05-07T12:34:49;102525.47;;;16.46
77728;BMP280;68312;53.502;10.030;2023-05-07T12:37:16;102527.59;;;16.11
77728;BMP280;68312;53.502;10.030;2023-05-07T12:39:48;102520.78;;;16.52
77728;BMP280;68312;53.502;10.030;2023-05-07T12:42:16;102527.75;;;16.89
77728;BMP280;68312;53.502;10.030;2023-05-07T12:44:45;102521.94;;;16.96
77728;BMP280;68312;53.502;10.030;2023-05-07T12:47:11;102529.78;;;16.92
77728;BMP280;68312;53.502;10.030;2023-05-07T12:49:37;102523.09;;;16.78
77728;BMP280;68312;53.502;10.030;2023-05-07T12:52:02;102522.94;;;16.50
77728;BMP280;68312;53.502;10.030;2023-05-07T12:54:29;102514.22;;;16.41
77728;BMP280;68312;53.502;10.030;2023-05-07T12:57:05;102521.06;;;16.17
77728;BMP280;68312;53.502;10.030;2023-05-07T12:59:39;102519.34;;;16.54
77728;BMP280;68312;53.502;10.030;2023-05-07T13:02:07;102517.50;;;16.63
77728;BMP280;68312;53.502;10.030;2023-05-07T13:04:34;102506.88;;;16.80
77728;BMP280;68312;53.502;10.030;2023-05-07T13:07:01;102526.06;;;16.85
77728;BMP280;68312;53.502;10.030;2023-05-07T13:09:27;102522.94;;;16.41
77728;BMP280;68312;53.502;10.030;2023-05-07T13:11:53;102515.31;;;16.48
77728;BMP280;68312;53.502;10.030;2023-05-07T13:14:18;102510.28;;;16.88
77728;BMP280;68312;53.502;10.030;2023-05-07T13:16:44;102515.72;;;16.92
77728;BMP280;68312;53.502;10.030;2023-05-07T13:19:09;102501.91;;;17.15
77728;BMP280;68312;53.502;10.030;2023-05-07T13:21:35;102504.66;;;17.64
77728;BMP280;68312;53.502;10.030;2023-05-07T13:24:00;102504.00;;;18.15
77728;BMP280;68312;53.502;10.030;2023-05-07T13:26:26;102496.75;;;17.84
77728;BMP280;68312;53.502;10.030;2023-05-07T13:28:53;102491.81;;;17.66
77728;BMP280;68312;53.502;10.030;2023-05-07T13:31:19;102503.28;;;17.21
77728;BMP280;68312;53.502;10.030;2023-05-07T13:33:44;102499.78;;;17.66
77728;BMP280;68312;53.502;10.030;2023-05-07T13:36:10;102496.09;;;18.07
77728;BMP280;68312;53.502;10.030;2023-05-07T13:38:35;102495.78;;;18.28
77728;BMP280;68312;53.502;10.030;2023-05-07T13:41:01;102497.84;;;18.23
77728;BMP280;68312;53.502;10.030;2023-05-07T13:43:26;102487.16;;;18.31
77728;BMP280;68312;53.502;10.030;2023-05-07T13:45:52;102499.69;;;18.11
77728;BMP280;68312;53.502;10.030;2023-05-07T13:48:17;102488.22;;;18.50
77728;BMP280;68312;53.502;10.030;2023-05-07T13:50:43;102480.22;;;19.06
77728;BMP280;68312;53.502;10.030;2023-05-07T13:53:08;102489.88;;;19.10
77728;BMP280;68312;53.502;10.030;2023-05-07T13:55:34;102483.00;;;18.98